Ana Sayfa
METAR-TAF:

METAR-TAF

Havaalanları :

N'Djamena, Çad

Enlem: 12-08N, Boylam: 015-02E, yükseklik: 295 m

Güncel hava durumu gözlemi

Rapor saat 02:00 UTC de 33 dakika önce yapıldı.
Rüzgar kuzeydan 6 kt
Sıcaklık 19°C
Nem 32%
Basınç 1014 hPa
Görüş mesafesi: 6000 m

METAR: FTTJ 110200Z 36006KT 6000 NSC 19/02 Q1014 NOSIG

Saat: 03:33 (02:33 UTC)

Tahmin

Rapor saat 17:00 UTC de 9 saat ve 33 dakika önce yapıldı.
Ayın 10'si saat 18 UTC'den ayın 11'si saat 24 UTC'ye kadar geçerli Tahmin
Rüzgar kuzeydan 8 kt
Görüş mesafesi: 7000 m
Geçici
ayın 10'si saat 20 UTC'den ayın 11'si saat 04 UTC'ye kadar
Görüş mesafesi: 3500 m
yaygın toz

TAF: FTTJ 101700Z 1018/1124 35008KT 7000 NSC TEMPO 1020/1104 3500 DU

4.000'den fazla havaalanı için hava durumu gözlemleri ve tahminleri (METAR ve TAF raporları).

Kullanılabilir istasyonlar harita üzerinde sarı ve kırmızı noktalarla gösterilir.

İstasyonun adını görmek için fareyi noktanın üzerinde gezdirin.

Sonrasında hava gözlem ve tahminlerini görmek için tıklayın.

Haritayı değiştirmek için: yaklaştırmak için siyah artı işaretli yeşil düğmeye ve uzaklaştırmak için de eksi işaretli düğmeye hızla tıklayın; bitişik haritalar için yeşil okları kullanın.


METAR-TAF: